Nearby METAR Reports

 

KBAX - Bad Axe, Michigan, USA
Distance from station: ESE 22mi, 35km
Updated: Thu, 25-May-2017 7:37pm EDT
Light rain, Overcast
Light rain, Overcast
 Wind from NE
Wind: NE 7 mph , 11 km/h
Temperature: 54°F , 12°C
Dew Point: 54°F , 12°C
Humidity: 100%
Barometer: 29.56 inHg , 1001 hPa
Summary: Light rain
Clouds: Overcast
Visibility: 3 miles , 5 km
Cloud details: Overcast 400 ft
2017/05/25 23:37 KBAX 252337Z AUTO 04006KT 3SM -RA OVC004 12/12 A2956 RMK AO2 T01160115
KFNT - Flint, Michigan, USA
Distance from station: SSW 68mi, 109km
Updated: Thu, 25-May-2017 6:53pm EDT
Overcast
Overcast
 Wind from N
Wind: N 9 mph , 15 km/h
Temperature: 55°F , 13°C
Dew Point: 55°F , 13°C
Humidity: 100%
Barometer: 29.55 inHg , 1000.7 hPa
Clouds: Overcast
Visibility: 10 miles , 16 km
Cloud details: Overcast 500 ft
2017/05/25 22:53 KFNT 252253Z 36008KT 10SM OVC005 13/13 A2955 RMK AO2 CIG 005V010 SLP007 T01330128
KMBS - Saginaw, Michigan, USA
Distance from station: SW 44mi, 70km
Updated: Thu, 25-May-2017 6:53pm EDT
Overcast
Overcast
 Wind from NNE
Wind: NNE 12 mph , 19 km/h
Temperature: 57°F , 14°C
Dew Point: 55°F , 13°C
Humidity: 94%
Barometer: 29.57 inHg , 1001.4 hPa
Clouds: Overcast
Visibility: 10 miles , 16 km
Cloud details: Overcast 1100 ft
2017/05/25 22:53 KMBS 252253Z 02010KT 10SM OVC011 14/13 A2957 RMK AO2 SLP013 T01440128
 
KDTW - Detroit/Wayne, Michigan, USA
Distance from station: SSE 117mi, 188km
Updated: Thu, 25-May-2017 6:53pm EDT
Overcast
Overcast
 Wind from NNW
Wind: NNW 9 mph , 15 km/h
Temperature: 61°F , 16°C
Dew Point: 57°F , 14°C
Humidity: 88%
Barometer: 29.53 inHg , 1000 hPa
Clouds: Overcast
Visibility: 8 miles , 13 km
Cloud details: Mostly cloudy 1500 ft
Overcast 2000 ft
2017/05/25 22:53 KDTW 252253Z 33008KT 8SM BKN015 OVC020 16/14 A2953 RMK AO2 SLP998 T01610139
KP58 - Port Hope, Michigan, USA
Distance from station: ENE 30mi, 48km
Updated: Thu, 25-May-2017 6:51pm EDT

 Wind from NE
Wind: NE 15 mph , 24 km/h
Temperature: 50°F , 10°C
Wind Chill: 45°F , 7°C
Dew Point: 48°F , 9°C
Humidity: 94%
Barometer: 29.54 inHg , 1000.3 hPa
2017/05/25 22:51 KP58 252251Z AUTO 05013KT 10/09 A2954 RMK AO1 SLP003 P0003 T01000094
KCFS - Caro/Tuscola, Michigan, USA
Distance from station: S 31mi, 50km
Updated: Thu, 25-May-2017 7:34pm EDT
Drizzle, Overcast
Drizzle, Overcast
 Wind from NNW
Wind: NNW 7 mph , 11 km/h
Temperature: 55°F , 13°C
Dew Point: 54°F , 12°C
Humidity: 94%
Barometer: 29.55 inHg , 1000.7 hPa
Summary: Drizzle
Clouds: Overcast
Visibility: 2 1/2 miles , 2 km
Cloud details: Overcast 400 ft
2017/05/25 23:34 KCFS 252334Z AUTO 33006KT 2 1/2SM DZ OVC004 13/12 A2955 RMK AO2 T01260120
 
KPHN - Port Huron, Michigan, USA
Distance from station: SSE 81mi, 131km
Updated: Thu, 25-May-2017 7:36pm EDT
Mist, Overcast
Mist, Overcast
 Wind from N
Wind: N 3 mph , 6 km/h
Temperature: 55°F , 13°C
Dew Point: 52°F , 11°C
Humidity: 88%
Barometer: 29.52 inHg , 999.7 hPa
Summary: Mist
Clouds: Overcast
Visibility: 2 1/2 miles , 2 km
Cloud details: Overcast 400 ft
2017/05/25 23:36 KPHN 252336Z AUTO 36003KT 2 1/2SM BR OVC004 13/11 A2952 RMK AO2
KPTK - Pontiac, Michigan, USA
Distance from station: S 86mi, 138km
Updated: Thu, 25-May-2017 6:53pm EDT
Overcast
Overcast
 Wind from NNW
Wind: NNW 14 mph , 22 km/h
Temperature: 57°F , 14°C
Dew Point: 54°F , 12°C
Humidity: 88%
Barometer: 29.52 inHg , 999.7 hPa
Clouds: Overcast
Visibility: 9 miles , 14 km
Cloud details: Overcast 700 ft
2017/05/25 22:53 KPTK 252253Z 33012KT 9SM OVC007 14/12 A2952 RMK AO2 CIG 006V011 SLP996 T01390122
KMTC - Selfridge Angb, Michigan, USA
Distance from station: SSE 94mi, 151km
Updated: Thu, 25-May-2017 7:44pm EDT
Light rain, Mist, Overcast
Light rain, Mist, Overcast
 Wind from NW
Wind: NW 9 mph , 15 km/h
Temperature: 59°F , 15°C
Dew Point: 59°F , 15°C
Humidity: 100%
Barometer: 29.51 inHg , 999.3 hPa
Summary: Light rain, Mist
Clouds: Overcast
Visibility: 2 1/4 miles , 2 km
Cloud details: Overcast 600 ft
2017/05/25 23:44 KMTC 252344Z 32008KT 2 1/4SM -RA BR OVC006 15/15 A2951 RMK AO2A